»·PEaware :: N727CR KDAB-KEYW

N727CR :: KDAB-KEYW

FLIGHT INFORMATION

Flight Status: Arrived
Operator: Privately registered:
United States
More flights under this callsign
Pilot: Anonymous 5323 (5323)
Aircraft: CESSNA 172 SKYHAWK
(C172)
More flights by this aircraft type
Origin: KDAB Daytona Beach Intl
United States
Destination: KEYW Key West Intl
United States
More flights between these airports :: More routes between these airports
Route: SMYRA V3 EYW
File this flight plan on PilotEdge
Remarks:
Altitude:
(Current/Filed)
8,000ft
Speed:
(Current/Filed)
108kts
Departed: 23-Aug-15 03:55 PM
Arrived: 23-Aug-15 07:05 PM
Distance/Time
Traveled:
280nm/3:10
Distance/Time
To Go:
Arrived

Flight Plot

Page will automatically refresh every two minutes.


Map Options




Map Legend


Flown Route
Filed Route
Departure Airport
Arrival Airport
Navaid (VOR, NDB)
Fix

Horizontal Profiles

Position Reports

Time Latitude Longitude Heading Altitude Ground
Speed
23-Aug-15 15:54 29.185454 -81.051438 64 37ft 0kts
23-Aug-15 15:55 29.185454 -81.051438 64 37ft 0kts
23-Aug-15 15:56 29.185454 -81.051438 64 37ft 0kts
23-Aug-15 15:57 29.185454 -81.051438 64 37ft 0kts
23-Aug-15 15:58 29.185454 -81.051438 64 37ft 0kts
23-Aug-15 15:59 29.185454 -81.051438 64 37ft 0kts
23-Aug-15 16:00 29.185454 -81.051438 64 37ft 0kts
23-Aug-15 16:01 29.184102 -81.052979 233 37ft 9kts
23-Aug-15 16:02 29.182548 -81.056811 249 37ft 12kts
23-Aug-15 16:03 29.180923 -81.060862 250 37ft 13kts
23-Aug-15 16:04 29.180180 -81.061196 116 37ft 0kts
23-Aug-15 16:05 29.182369 -81.053504 67 154ft 66kts
23-Aug-15 16:06 29.178671 -81.036096 168 899ft 78kts
23-Aug-15 16:07 29.156740 -81.039143 172 1597ft 83kts
23-Aug-15 16:08 29.133599 -81.036450 161 2277ft 83kts
23-Aug-15 16:09 29.111620 -81.030674 156 2970ft 79kts
23-Aug-15 16:10 29.090861 -81.023859 154 3625ft 80kts
23-Aug-15 16:11 29.068770 -81.016098 154 4236ft 86kts
23-Aug-15 16:12 29.045591 -81.007722 154 4834ft 88kts
23-Aug-15 16:13 29.023014 -80.999425 153 5406ft 88kts
23-Aug-15 16:14 29.000166 -80.990758 151 5992ft 85kts
23-Aug-15 16:15 28.978252 -80.981998 150 6574ft 81kts
23-Aug-15 16:16 28.957569 -80.973680 148 7146ft 76kts
23-Aug-15 16:17 28.939137 -80.966203 144 7688ft 63kts
23-Aug-15 16:18 28.919259 -80.958098 151 7999ft 85kts
23-Aug-15 16:19 28.893749 -80.948115 153 8059ft 103kts
23-Aug-15 16:20 28.866382 -80.937333 153 8053ft 105kts
23-Aug-15 16:21 28.838766 -80.926357 153 8047ft 104kts
23-Aug-15 16:22 28.811488 -80.915480 153 8042ft 103kts
23-Aug-15 16:23 28.784430 -80.904689 153 8039ft 102kts
23-Aug-15 16:24 28.757498 -80.893840 153 8046ft 103kts
23-Aug-15 16:25 28.730334 -80.882946 154 8049ft 104kts
23-Aug-15 16:26 28.702918 -80.872189 154 8052ft 104kts
23-Aug-15 16:27 28.675441 -80.861278 153 8055ft 105kts
23-Aug-15 16:28 28.647899 -80.850264 153 8057ft 105kts
23-Aug-15 16:29 28.620112 -80.839155 153 8057ft 106kts
23-Aug-15 16:30 28.592192 -80.828000 153 8056ft 106kts
23-Aug-15 16:31 28.564167 -80.816810 153 8055ft 107kts
23-Aug-15 16:32 28.536001 -80.805569 153 8055ft 108kts
23-Aug-15 16:33 28.507399 -80.794179 154 8054ft 109kts
23-Aug-15 16:34 28.478489 -80.782705 154 8053ft 111kts
23-Aug-15 16:35 28.449324 -80.771150 154 8053ft 112kts
23-Aug-15 16:36 28.420025 -80.759548 154 8052ft 112kts
23-Aug-15 16:37 28.390497 -80.747862 154 8052ft 112kts
23-Aug-15 16:38 28.361012 -80.736199 154 8052ft 112kts
23-Aug-15 16:39 28.331454 -80.724513 153 8053ft 112kts
23-Aug-15 16:40 28.301834 -80.712808 153 8053ft 112kts
23-Aug-15 16:41 28.272200 -80.701105 153 8054ft 113kts
23-Aug-15 16:42 28.242445 -80.689361 153 8055ft 113kts
23-Aug-15 16:43 28.212595 -80.677587 153 8057ft 113kts
23-Aug-15 16:44 28.182794 -80.665840 152 8058ft 113kts
23-Aug-15 16:45 28.153019 -80.654109 152 8060ft 113kts
23-Aug-15 16:46 28.123300 -80.642400 152 8060ft 113kts
23-Aug-15 16:47 28.093360 -80.631274 154 8060ft 114kts
23-Aug-15 16:48 28.062868 -80.620801 155 8059ft 114kts
23-Aug-15 16:49 28.032271 -80.610326 155 8060ft 115kts
23-Aug-15 16:50 28.014437 -80.604228 155 8060ft 115kts
23-Aug-15 16:51 27.983697 -80.593721 155 8060ft 116kts
23-Aug-15 16:52 27.953013 -80.583188 157 8051ft 117kts
23-Aug-15 16:53 27.921712 -80.572540 157 8051ft 117kts
23-Aug-15 16:54 27.890610 -80.561938 157 8052ft 117kts
23-Aug-15 16:55 27.859298 -80.551263 158 8053ft 117kts
23-Aug-15 16:56 27.827970 -80.540586 158 8054ft 117kts
23-Aug-15 16:57 27.796656 -80.529923 158 8056ft 117kts
23-Aug-15 16:58 27.765469 -80.519312 159 8057ft 117kts
23-Aug-15 16:59 27.734180 -80.508674 159 8058ft 117kts
23-Aug-15 17:00 27.708200 -80.499846 159 8059ft 117kts
23-Aug-15 17:01 27.677091 -80.489088 156 8060ft 116kts
23-Aug-15 17:02 27.646656 -80.476756 156 8059ft 116kts
23-Aug-15 17:03 27.616147 -80.464346 157 8057ft 116kts
23-Aug-15 17:04 27.585744 -80.451972 157 8056ft 116kts
23-Aug-15 17:05 27.555145 -80.439524 157 8054ft 116kts
23-Aug-15 17:06 27.524705 -80.427147 158 8052ft 116kts
23-Aug-15 17:07 27.494203 -80.414758 158 8051ft 116kts
23-Aug-15 17:08 27.463735 -80.402390 158 8050ft 116kts
23-Aug-15 17:09 27.433543 -80.390140 158 8049ft 115kts
23-Aug-15 17:10 27.403369 -80.377902 157 8050ft 115kts
23-Aug-15 17:11 27.373185 -80.365667 157 8050ft 115kts
23-Aug-15 17:12 27.343084 -80.353476 157 8052ft 115kts
23-Aug-15 17:13 27.313192 -80.341375 156 8053ft 114kts
23-Aug-15 17:14 27.283248 -80.329257 156 8055ft 114kts
23-Aug-15 17:15 27.253692 -80.317301 156 8057ft 114kts
23-Aug-15 17:16 27.224318 -80.305427 155 8058ft 112kts
23-Aug-15 17:17 27.195301 -80.293700 155 8059ft 111kts
23-Aug-15 17:18 27.166485 -80.282053 155 8059ft 111kts
23-Aug-15 17:19 27.137458 -80.270334 155 8059ft 111kts
23-Aug-15 17:20 27.109787 -80.259169 155 8059ft 110kts
23-Aug-15 17:21 27.082995 -80.248365 155 8059ft 110kts
23-Aug-15 17:22 27.055328 -80.237215 155 8059ft 110kts
23-Aug-15 17:23 27.026656 -80.225668 155 8059ft 110kts
23-Aug-15 17:24 26.997995 -80.214131 155 8059ft 110kts
23-Aug-15 17:25 26.969045 -80.202480 155 8059ft 111kts
23-Aug-15 17:26 26.940155 -80.190865 155 8059ft 113kts
23-Aug-15 17:27 26.911490 -80.179348 155 8059ft 114kts
23-Aug-15 17:28 26.881869 -80.167453 155 8059ft 115kts
23-Aug-15 17:29 26.851673 -80.155340 155 8059ft 116kts
23-Aug-15 17:30 26.821398 -80.143203 155 8059ft 116kts
23-Aug-15 17:31 26.791478 -80.131213 155 8059ft 116kts
23-Aug-15 17:32 26.761742 -80.119303 155 8059ft 115kts
23-Aug-15 17:33 26.732061 -80.107421 155 8059ft 115kts
23-Aug-15 17:34 26.701989 -80.095388 155 8059ft 115kts
23-Aug-15 17:35 26.671026 -80.088486 181 8060ft 118kts
23-Aug-15 17:36 26.640019 -80.092115 182 8059ft 119kts
23-Aug-15 17:37 26.607800 -80.096236 182 8059ft 119kts
23-Aug-15 17:38 26.574997 -80.100535 182 8060ft 119kts
23-Aug-15 17:39 26.541993 -80.104896 182 8060ft 120kts
23-Aug-15 17:40 26.508929 -80.109269 182 8060ft 121kts
23-Aug-15 17:41 26.475866 -80.113636 181 8060ft 122kts
23-Aug-15 17:42 26.442577 -80.118031 181 8058ft 123kts
23-Aug-15 17:43 26.408684 -80.122504 181 8057ft 124kts
23-Aug-15 17:44 26.374619 -80.126981 181 8056ft 124kts
23-Aug-15 17:45 26.340409 -80.131483 181 8054ft 124kts
23-Aug-15 17:46 26.306432 -80.135957 181 8053ft 124kts
23-Aug-15 17:47 26.273761 -80.140254 182 7992ft 127kts
23-Aug-15 17:48 26.239470 -80.144774 182 7988ft 125kts
23-Aug-15 17:49 26.205411 -80.149257 182 7986ft 124kts
23-Aug-15 17:50 26.171313 -80.153736 182 7984ft 124kts
23-Aug-15 17:51 26.137917 -80.158121 182 7982ft 124kts
23-Aug-15 17:52 26.106433 -80.162253 182 7972ft 124kts
23-Aug-15 17:53 26.073380 -80.167990 204 7971ft 125kts
23-Aug-15 17:54 26.043720 -80.186977 207 7972ft 125kts
23-Aug-15 17:55 26.014207 -80.206481 207 7975ft 124kts
23-Aug-15 17:56 25.984642 -80.226154 208 7977ft 124kts
23-Aug-15 17:57 25.955560 -80.245531 208 7978ft 123kts
23-Aug-15 17:58 25.926435 -80.264935 208 7979ft 123kts
23-Aug-15 17:59 25.897244 -80.284386 208 7978ft 123kts
23-Aug-15 18:00 25.867916 -80.303911 208 7976ft 123kts
23-Aug-15 18:01 25.838834 -80.323255 208 7975ft 123kts
23-Aug-15 18:02 25.814682 -80.339311 207 7973ft 123kts
23-Aug-15 18:03 25.778435 -80.353384 186 7971ft 120kts
23-Aug-15 18:04 25.746030 -80.360572 186 7969ft 119kts
23-Aug-15 18:05 25.713578 -80.367604 185 7967ft 119kts
23-Aug-15 18:06 25.686693 -80.373385 184 7966ft 118kts
23-Aug-15 18:07 25.654930 -80.380195 184 7964ft 117kts
23-Aug-15 18:08 25.623377 -80.386951 183 7961ft 115kts
23-Aug-15 18:09 25.592523 -80.393547 183 7959ft 113kts
23-Aug-15 18:10 25.562112 -80.400032 183 7959ft 113kts
23-Aug-15 18:11 25.531784 -80.406504 184 7959ft 113kts
23-Aug-15 18:12 25.500942 -80.413087 184 7959ft 114kts
23-Aug-15 18:13 25.469879 -80.419717 185 7960ft 115kts
23-Aug-15 18:14 25.438578 -80.426397 185 7959ft 115kts
23-Aug-15 18:15 25.406966 -80.433150 186 7959ft 116kts
23-Aug-15 18:16 25.375408 -80.439881 186 7959ft 116kts
23-Aug-15 18:17 25.344308 -80.446508 186 7959ft 117kts
23-Aug-15 18:18 25.312765 -80.453225 186 7959ft 117kts
23-Aug-15 18:19 25.281008 -80.459984 186 7959ft 118kts
23-Aug-15 18:20 25.249243 -80.466750 186 7959ft 118kts
23-Aug-15 18:21 25.217351 -80.473534 186 7959ft 118kts
23-Aug-15 18:22 25.185612 -80.480279 186 7959ft 117kts
23-Aug-15 18:23 25.153787 -80.487038 186 7959ft 117kts
23-Aug-15 18:24 25.122132 -80.493757 186 7959ft 116kts
23-Aug-15 18:25 25.090504 -80.500455 186 7961ft 116kts
23-Aug-15 18:26 25.058640 -80.507205 186 7963ft 117kts
23-Aug-15 18:27 25.026736 -80.513963 187 7965ft 117kts
23-Aug-15 18:28 24.994874 -80.520710 188 7967ft 118kts
23-Aug-15 18:29 24.962654 -80.527523 188 7970ft 118kts
23-Aug-15 18:30 24.930456 -80.534325 189 7972ft 118kts
23-Aug-15 18:31 24.898031 -80.541172 189 7974ft 118kts
23-Aug-15 18:32 24.866073 -80.547917 189 7976ft 118kts
23-Aug-15 18:33 24.833953 -80.554691 190 7978ft 118kts
23-Aug-15 18:34 24.802215 -80.561400 190 7979ft 117kts
23-Aug-15 18:35 24.770196 -80.568189 190 7980ft 117kts
23-Aug-15 18:36 24.738107 -80.574985 190 7980ft 117kts
23-Aug-15 18:37 24.717386 -80.596170 262 7981ft 115kts
23-Aug-15 18:38 24.712768 -80.631217 264 7980ft 115kts
23-Aug-15 18:39 24.708808 -80.666411 265 7980ft 116kts
23-Aug-15 18:40 24.705079 -80.701231 265 7980ft 116kts
23-Aug-15 18:41 24.701353 -80.736487 265 7980ft 116kts
23-Aug-15 18:42 24.697640 -80.771700 265 7980ft 116kts
23-Aug-15 18:43 24.693923 -80.806913 265 7980ft 116kts
23-Aug-15 18:44 24.690195 -80.842176 265 7980ft 115kts
23-Aug-15 18:45 24.686469 -80.877335 265 7980ft 115kts
23-Aug-15 18:46 24.682736 -80.912504 265 7980ft 115kts
23-Aug-15 18:47 24.678996 -80.947651 265 7980ft 116kts
23-Aug-15 18:48 24.675267 -80.982609 265 7980ft 116kts
23-Aug-15 18:49 24.671536 -81.017502 265 7980ft 116kts
23-Aug-15 18:50 24.667791 -81.052462 265 7980ft 116kts
23-Aug-15 18:51 24.664051 -81.087281 265 7980ft 116kts
23-Aug-15 18:52 24.660450 -81.121998 263 7989ft 115kts
23-Aug-15 18:53 24.656772 -81.156493 263 7989ft 113kts
23-Aug-15 18:54 24.653123 -81.190356 263 7742ft 107kts
23-Aug-15 18:55 24.649746 -81.221558 263 7082ft 102kts
23-Aug-15 18:56 24.646351 -81.252947 263 6390ft 105kts
23-Aug-15 18:57 24.642862 -81.285008 263 5693ft 106kts
23-Aug-15 18:58 24.639367 -81.316991 263 4993ft 105kts
23-Aug-15 18:59 24.635882 -81.348817 263 4291ft 104kts
23-Aug-15 19:00 24.632451 -81.380120 263 3995ft 107kts
23-Aug-15 19:01 24.628961 -81.411983 263 3991ft 104kts
23-Aug-15 19:02 24.625507 -81.443446 263 3994ft 104kts
23-Aug-15 19:03 24.622040 -81.474978 263 3995ft 104kts
23-Aug-15 19:04 24.618646 -81.505783 263 3994ft 100kts
23-Aug-15 19:05 24.615243 -81.536601 263 3997ft 102kts
23-Aug-15 19:06 24.611825 -81.567512 263 3998ft 103kts
23-Aug-15 19:07 24.608655 -81.593652 250 3820ft 101kts
23-Aug-15 19:08 24.596298 -81.622166 249 3240ft 104kts
23-Aug-15 19:09 24.584972 -81.651072 254 2650ft 103kts
23-Aug-15 19:10 24.571481 -81.678219 238 2125ft 101kts
23-Aug-15 19:11 24.558590 -81.704398 256 1437ft 95kts
23-Aug-15 19:12 24.554573 -81.705031 322 844ft 80kts
23-Aug-15 19:13 24.556110 -81.727675 270 591ft 71kts
23-Aug-15 19:14 24.555764 -81.748129 271 160ft 69kts
23-Aug-15 19:15 24.555708 -81.761982 264 5ft 8kts
23-Aug-15 19:16 24.554919 -81.760892 86 5ft 9kts
23-Aug-15 19:17 24.554845 -81.757722 120 5ft 10kts
23-Aug-15 19:18 24.554268 -81.757243 3 5ft 0kts
23-Aug-15 19:19 24.554268 -81.757243 3 5ft 0kts
23-Aug-15 19:20 24.554268 -81.757243 3 5ft 0kts

Navigation Log

Ident Type
1. KDAB Airport
2. SMYRA Fix
3. OAKIE Fix
4. FORNI Fix
5. MALET Fix
6. TICCO Fix
7. INDIA Fix
8. MLB Navaid
9. VALKA Fix
10. MLBSO Fix
11. TRV Navaid
12. SMUGS Fix
13. MORGA Fix
14. PBI Navaid
15. FLL Navaid
16. DHP Navaid
17. MNATE Fix
18. TWNNS Fix
19. DROWN Fix
20. GUCEL Fix
21. JANKA Fix
22. BIPIN Fix
23. EYW Navaid
24. KEYW Airport